Latest Coastal Weather Observations for Hobart Airport

IDT60701

Issued at 12:03 pm EDT Tuesday 24 January 2017 (issued every 10 minutes, with the page automatically refreshed every 10 minutes)

About coastal observations | Map of coastal stations | Coastal observations for TAS | Marine services | Other Formats
Station Details ID: 094008 Name: HOBART AIRPORT Lat: -42.83 Lon: 147.50 Height: 4.0 m
Data from the previous 72 hours. | See also: Recent months at Hobart Airport
Date/Time
EDT
Temp
°C
Wind Pressure Rain since
9am
mm
Weather Cloud Vis
km
Sea
Height
m
Swell
Dir  Spd
kts
Gust
kts
hPa Trend Height
m
Period
s
Dir
24/11:40am 18.8 W 25 41 1002.9 - 0.0 - Partly cloudy 10 - - - -
24/11:35am 19.2 W 21 31 1003.0 - 0.0 - Partly cloudy 10 - - - -
24/11:30am 19.0 W 22 28 1002.9 - 0.0 - Partly cloudy 10 - - - -
24/11:00am 17.9 W 21 33 1002.5 - 0.0 - Mostly cloudy 10 - - - -
24/10:30am 18.0 W 21 31 1001.7 - 0.0 - Mostly cloudy 10 - - - -
24/10:03am 18.4 W 20 30 1001.1 - 0.0 - Mostly cloudy 10 - - - -
24/10:00am 18.0 W 19 26 1001.0 - 0.0 - Mostly cloudy 10 - - - -
24/09:30am 17.3 WNW 18 25 1000.3 - 0.0 - Mostly cloudy 10 - - - -
24/09:07am 17.8 W 15 26 999.6 - 0.0 - Mostly cloudy 10 - - - -
24/09:00am 16.7 WSW 12 17 999.6 R 1.2 Fine Mostly cloudy 35 - - - -
24/08:30am 16.8 W 18 26 998.9 - 1.2 - Mostly cloudy 10 - - - -
24/08:00am 17.2 W 19 26 997.4 - 1.2 - Mostly cloudy 10 - - - -
24/07:38am 17.4 W 19 29 996.4 - 1.2 - Partly cloudy 10 - - - -
24/07:30am 17.4 W 20 28 996.1 - 1.2 - Partly cloudy 10 - - - -
24/07:04am 17.0 W 24 34 995.4 - 1.2 - Partly cloudy 10 - - - -
24/07:00am 17.2 W 27 34 995.3 - 1.2 - Partly cloudy 10 - - - -
24/06:30am 17.8 W 29 42 993.6 - 1.2 - Partly cloudy 10 - - - -
24/06:28am 17.3 W 29 42 993.6 - 1.2 - Partly cloudy 10 - - - -
24/06:00am 19.5 W 24 34 992.4 R 0.6 Distant precip. Partly cloudy 40 - - - -
24/05:30am 19.5 W 27 41 991.0 - 0.6 - Mostly clear 10 - - - -
24/05:15am 19.5 W 23 42 990.8 - 0.4 Showers Partly cloudy 6 - - - -
24/05:13am 21.0 WNW 22 31 990.6 - 0.0 Showers Partly cloudy 6 - - - -
24/05:10am 21.5 WNW 23 32 990.5 - 0.0 Showers Mostly clear 10 - - - -
24/05:00am 23.3 NW 24 38 990.1 - 0.0 - Mostly clear 10 - - - -
24/04:40am 23.3 NW 21 33 989.5 - 0.0 - Mostly clear 10 - - - -
24/04:30am 23.4 NW 21 29 989.4 - 0.0 - Mostly clear 10 - - - -
24/04:03am 23.5 NW 17 29 989.5 - 0.0 - Mostly clear 10 - - - -
24/04:00am 23.6 NW 15 25 989.5 - 0.0 - Mostly clear 10 - - - -
24/03:58am 23.5 NNW 14 25 989.3 - 0.0 - Mostly clear 10 - - - -
24/03:30am 21.8 N 9 14 989.8 - 0.0 - Mostly clear 10 - - - -
24/03:00am 22.1 N 13 18 990.1 F 0.0 Fine Mostly cloudy 40 - - - -
24/02:30am 23.1 N 13 17 990.6 - 0.0 - Mostly clear 10 - - - -
24/02:00am 22.5 NNW 10 15 991.3 - 0.0 - Mostly clear 10 - - - -
24/01:30am 23.4 NNE 12 17 992.2 - 0.0 - Mostly cloudy 10 - - - -
24/01:00am 23.7 N 9 17 993.3 - 0.0 - Mostly clear 10 - - - -
24/12:30am 22.2 NW 4 8 994.0 - 0.0 - Mostly clear 10 - - - -
24/12:00am 19.8 SSE 3 4 994.5 F 0.0 Fine Mostly cloudy 40 - - - -
 
Date/Time
EDT
Temp
°C
Wind Pressure Rain since
9am
mm
Weather Cloud Vis
km
Sea
Height
m
Swell
Dir  Spd
kts
Gust
kts
hPa Trend Height
m
Period
s
Dir
23/11:30pm 19.5 NNW 1 4 995.3 - 0.0 - - 10 - - - -
23/11:00pm 19.7 SSW 4 5 996.0 - 0.0 - - 10 - - - -
23/10:30pm 19.8 SE 5 7 996.5 - 0.0 - Partly cloudy 10 - - - -
23/10:00pm 20.0 E 4 5 996.9 - 0.0 - Partly cloudy 10 - - - -
23/09:30pm 21.5 ENE 4 6 997.3 - 0.0 - - 10 - - - -
23/09:00pm 22.8 SSE 5 6 997.6 F 0.0 Fine Mostly cloudy 40 - - - -
23/08:30pm 23.2 SSW 7 10 997.9 - 0.0 - Cloudy 10 - - - -
23/08:00pm 23.6 SSW 7 11 997.6 - 0.0 - Cloudy 10 - - - -
23/07:30pm 24.3 S 10 15 997.9 - 0.0 - Partly cloudy 10 - - - -
23/07:00pm 23.8 S 13 17 997.8 - 0.0 - - 10 - - - -
23/06:30pm 24.0 S 16 20 997.6 - 0.0 - - 10 - - - -
23/06:00pm 24.6 S 16 21 998.2 F 0.0 Fine Partly cloudy 40 - - - -
23/05:30pm 23.9 S 16 20 998.7 - 0.0 - - 10 - - - -
23/05:00pm 24.0 SSE 14 17 999.2 - 0.0 - - 10 - - - -
23/04:30pm 25.6 SSE 13 16 999.8 - 0.0 - - 10 - - - -
23/04:00pm 25.6 SSE 13 15 1000.2 - 0.0 - - 10 - - - -
23/03:30pm 24.9 SE 15 19 1000.8 - 0.0 - - 10 - - - -
23/03:00pm 25.2 SSE 12 16 1001.5 F 0.0 Fine Partly cloudy 40 - - - -
23/02:30pm 26.1 SSE 11 14 1002.0 - 0.0 - - 10 - - - -
23/02:00pm 24.8 SSE 12 15 1002.8 - 0.0 - - 10 - - - -
23/01:30pm 23.7 SSE 12 15 1003.4 - 0.0 - - 10 - - - -
23/01:00pm 23.5 SSE 10 13 1004.2 - 0.0 - - 10 - - - -
23/12:30pm 24.3 SSE 6 9 1004.9 - 0.0 - Mostly clear 10 - - - -
23/12:00pm 23.3 SSE 7 9 1005.6 F 0.0 Fine Partly cloudy 40 - - - -
23/11:30am 22.8 NE 5 7 1006.1 - 0.0 - Mostly clear 10 - - - -
23/11:00am 20.6 SW 4 5 1006.6 - 0.0 - Mostly clear 10 - - - -
23/10:30am 19.9 ENE 2 5 1006.9 - 0.0 - Mostly clear 10 - - - -
23/10:00am 18.9 ENE 5 6 1007.5 - 0.0 - Mostly clear 10 - - - -
23/09:30am 18.6 NNE 5 8 1007.9 - 0.0 - Mostly clear 10 - - - -
23/09:00am 17.6 WNW 7 9 1008.4 F 0.0 Fine Mostly clear 40 - - - -
23/08:30am 17.5 NW 7 9 1008.6 - 0.0 - Mostly clear 10 - - - -
23/08:00am 16.7 NNW 6 9 1008.8 - 0.0 - Mostly clear 10 - - - -
23/07:50am 16.7 NNW 5 8 1009.0 - 0.0 - Mostly clear 10 - - - -
23/07:30am 16.0 NNW 5 7 1009.0 - 0.0 - Mostly clear 10 - - - -
23/07:00am 15.4 NW 6 7 1008.9 - 0.0 - Mostly clear 10 - - - -
23/06:30am 14.9 WNW 5 7 1009.0 - 0.0 - Mostly clear 10 - - - -
23/06:00am 14.4 NNW 4 5 1009.0 F 0.0 Fine Partly cloudy 30 - - - -
23/05:35am 14.8 N 5 6 1008.9 - 0.0 - Mostly clear 10 - - - -
23/05:30am 14.9 N 5 6 1009.0 - 0.0 - Mostly clear 10 - - - -
23/05:00am 14.9 NW 4 5 1009.0 - 0.0 - Mostly cloudy 10 - - - -
23/04:30am 14.6 NW 6 7 1008.9 - 0.0 - Mostly cloudy 10 - - - -
23/04:00am 14.7 WNW 6 7 1009.1 - 0.0 - Mostly cloudy 10 - - - -
23/03:30am 15.1 CALM 0 1 1009.2 - 0.0 - Partly cloudy 10 - - - -
23/03:00am 15.6 E 4 5 1009.5 F 0.0 Fine Partly cloudy 30 - - - -
23/02:30am 16.0 E 4 5 1009.7 - 0.0 - Mostly cloudy 10 - - - -
23/02:00am 16.8 E 5 8 1010.0 - 0.0 - Mostly cloudy 10 - - - -
23/01:30am 17.1 ENE 6 8 1010.4 - 0.0 - Mostly cloudy 10 - - - -
23/01:00am 17.2 E 5 7 1010.7 - 0.0 - Mostly cloudy 10 - - - -
23/12:30am 17.2 E 5 8 1011.1 - 0.0 - Mostly cloudy 10 - - - -
23/12:00am 17.1 E 5 7 1011.4 F 0.0 Fine Mostly cloudy 30 - - - -
 
Date/Time
EDT
Temp
°C
Wind Pressure Rain since
9am
mm
Weather Cloud Vis
km
Sea
Height
m
Swell
Dir  Spd
kts
Gust
kts
hPa Trend Height
m
Period
s
Dir
22/11:30pm 17.0 ESE 4 6 1011.6 - 0.0 - Mostly cloudy 10 - - - -
22/11:17pm 16.9 E 5 7 1011.8 - 0.0 - Mostly cloudy 10 - - - -
22/11:00pm 16.3 E 4 6 1012.0 - 0.0 - Partly cloudy 10 - - - -
22/10:30pm 16.4 ESE 4 5 1012.4 - 0.0 - Mostly clear 10 - - - -
22/10:00pm 16.3 ESE 4 5 1012.5 - 0.0 - Mostly clear 10 - - - -
22/09:30pm 16.9 ESE 5 6 1012.4 - 0.0 - Mostly clear 10 - - - -
22/09:00pm 17.4 ESE 5 7 1012.1 F 0.0 Fine Mostly clear 40 - - - -
22/08:30pm 18.4 ESE 7 10 1011.9 - 0.0 - Mostly clear 10 - - - -
22/08:00pm 18.9 SE 7 9 1011.7 - 0.0 - Mostly clear 10 - - - -
22/07:30pm 19.6 SE 8 12 1011.7 - 0.0 - Mostly clear 10 - - - -
22/07:00pm 20.3 SE 8 11 1011.5 - 0.0 - Mostly clear 10 - - - -
22/06:30pm 20.8 SSE 10 14 1011.3 - 0.0 - Mostly clear 10 - - - -
22/06:00pm 20.9 SSE 12 16 1011.3 S 0.0 Fine Mostly clear 40 - - - -
22/05:30pm 21.4 S 14 17 1011.3 - 0.0 - Mostly clear 10 - - - -
22/05:00pm 22.2 S 15 18 1011.4 - 0.0 - Mostly clear 10 - - - -
22/04:30pm 22.2 S 14 17 1011.4 - 0.0 - - 10 - - - -
22/04:00pm 21.8 SSE 14 17 1011.5 - 0.0 - - 10 - - - -
22/03:30pm 22.4 SSE 14 16 1011.4 - 0.0 - - 10 - - - -
22/03:00pm 22.5 SSE 15 18 1011.4 R 0.0 Fine Mostly clear 40 - - - -
22/02:30pm 22.5 SSE 14 16 1011.5 - 0.0 - - 10 - - - -
22/02:00pm 22.2 SSE 14 16 1011.6 - 0.0 - Mostly clear 10 - - - -
22/01:30pm 21.8 SSE 14 17 1011.8 - 0.0 - Mostly clear 10 - - - -
22/01:00pm 22.0 SSE 14 18 1012.1 - 0.0 - Mostly clear 10 - - - -
22/12:30pm 25.4 NW 11 16 1012.1 - 0.0 - Mostly clear 10 - - - -
22/12:00pm 24.2 NW 11 17 1012.2 F 0.0 Fine Mostly clear 40 - - - -
22/11:30am 22.9 NW 12 17 1012.6 - 0.0 - - 10 - - - -
22/11:00am 21.4 NW 12 16 1012.9 - 0.0 - - 10 - - - -
22/10:30am 20.4 NNW 9 13 1013.0 - 0.0 - - 10 - - - -
22/10:00am 19.0 NW 11 14 1013.4 - 0.0 - - 10 - - - -
22/09:30am 18.9 NNW 12 16 1013.7 - 0.0 - - 10 - - - -
22/09:00am 17.8 NW 13 16 1014.0 F 0.2 Fine Mostly clear 40 - - - -
22/08:30am 16.6 NNW 12 17 1014.2 - 0.2 - Cloudy 10 - - - -
22/08:00am 15.5 NNW 8 13 1014.0 - 0.2 - Cloudy 10 - - - -
22/07:30am 14.9 N 11 16 1014.1 - 0.2 - Cloudy 10 - - - -
22/07:00am 15.1 NNW 9 15 1013.8 - 0.2 - Cloudy 10 - - - -
22/06:30am 14.2 NNW 12 17 1013.6 - 0.2 - Partly cloudy 10 - - - -
22/06:00am 13.7 NW 12 17 1013.8 R 0.2 Fine Partly cloudy 40 - - - -
22/05:30am 13.2 NNW 7 9 1013.7 - 0.2 - Partly cloudy 10 - - - -
22/05:00am 12.5 NNW 6 7 1013.3 - 0.2 - Partly cloudy 10 - - - -
22/04:30am 12.9 NNW 7 10 1013.2 - 0.2 - - 10 - - - -
22/04:00am 13.0 NNW 5 7 1013.3 - 0.2 - - 10 - - - -
22/03:30am 12.5 N 6 8 1013.1 - 0.2 - - 10 - - - -
22/03:00am 13.2 N 5 7 1013.5 R 0.2 Fine Mostly clear 40 - - - -
22/02:30am 12.5 NNW 5 6 1013.8 - 0.2 - - 10 - - - -
22/02:00am 13.8 NNW 5 7 1013.6 - 0.2 - Mostly clear 10 - - - -
22/01:30am 14.0 NW 7 9 1013.9 - 0.2 - - 10 - - - -
22/01:00am 14.2 NW 6 8 1013.9 - 0.2 - Mostly clear 10 - - - -
22/12:30am 14.6 N 5 7 1014.1 - 0.2 - Mostly clear 10 - - - -
22/12:00am 15.4 NW 4 5 1014.1 R 0.2 Fine Mostly clear 40 - - - -
 
Date/Time
EDT
Temp
°C
Wind Pressure Rain since
9am
mm
Weather Cloud Vis
km
Sea
Height
m
Swell
Dir  Spd
kts
Gust
kts
hPa Trend Height
m
Period
s
Dir
21/11:30pm 15.7 WNW 4 6 1014.3 - 0.2 - Partly cloudy 10 - - - -
21/11:00pm 15.6 SSW 7 8 1014.1 - 0.2 - Mostly cloudy 10 - - - -
21/10:30pm 15.0 NE 4 5 1014.0 - 0.2 - Partly cloudy 10 - - - -
21/10:00pm 15.3 SSE 2 6 1013.8 - 0.2 - Partly cloudy 10 - - - -
21/09:30pm 16.7 SSW 7 9 1013.4 - 0.2 - Cloudy 10 - - - -
21/09:00pm 17.1 SSW 7 8 1013.1 R 0.2 Fine Partly cloudy 40 - - - -
21/08:30pm 17.6 W 7 9 1012.6 - 0.2 - Mostly clear 10 - - - -
21/08:00pm 18.6 W 9 11 1012.4 - 0.2 - Mostly clear 10 - - - -
21/07:30pm 19.3 W 9 14 1012.0 - 0.2 - Mostly clear 10 - - - -
21/07:00pm 19.6 WNW 12 17 1011.5 - 0.2 - Mostly clear 10 - - - -
21/06:30pm 20.6 W 15 19 1011.1 - 0.2 - Mostly clear 10 - - - -
21/06:00pm 21.0 W 13 18 1011.1 R 0.2 Fine Partly cloudy 40 - - - -
21/05:30pm 20.8 W 13 18 1011.1 - 0.2 - Mostly clear 10 - - - -
21/05:00pm 21.3 W 14 18 1010.8 - 0.2 - Mostly clear 10 - - - -
21/04:30pm 21.2 W 10 16 1010.8 - 0.2 - Mostly clear 10 - - - -
21/04:00pm 21.4 SW 9 12 1010.7 - 0.2 - Mostly clear 10 - - - -
21/03:30pm 20.9 SSW 10 18 1010.7 - 0.2 - Mostly clear 10 - - - -
21/03:00pm 18.9 WSW 7 9 1010.7 R 0.2 Fine Mostly cloudy 40 - - - -
21/02:30pm 18.4 W 7 9 1010.6 - 0.2 - Mostly clear 10 - - - -
21/02:00pm 18.0 WSW 8 11 1010.4 - 0.2 - Mostly clear 10 - - - -
21/01:30pm 17.2 W 12 18 1010.3 - 0.2 Showers Mostly clear 10 - - - -
21/01:00pm 17.5 WNW 14 21 1010.0 - 0.2 - Mostly clear 10 - - - -
21/12:30pm 17.9 NW 15 18 1009.7 - 0.2 - Mostly clear 10 - - - -

Other Formats:

Comma delimited format used in spreadsheet applications
http://www.bom.gov.au/fwo/IDT60701/IDT60701.94975.axf

JavaScript Object Notation format (JSON) in row-major order
http://www.bom.gov.au/fwo/IDT60701/IDT60701.94975.json